Time,TemperatureF,DewpointF,PressureIn,WindDirection,WindDirectionDegrees,WindSpeedMPH,WindSpeedGustMPH,Humidity,HourlyPrecipIn,Conditions,Clouds,dailyrainin,SoftwareType,DateUTC
2013-02-04 00:00:00,30.0,19.7,30.02,WNW,299,0.0,6.0,65,0.00,CLR,,0.00,WeatherDisplay:10.37,2013-02-04 05:00:00,
2013-02-04 00:15:00,30.9,19.8,30.02,NW,313,0.0,2.0,63,0.00,CLR,,0.00,WeatherDisplay:10.37,2013-02-04 05:15:00,
2013-02-04 00:30:00,29.9,19.5,30.03,NW,313,1.0,2.0,65,0.00,CLR,,0.00,WeatherDisplay:10.37,2013-02-04 05:30:00,
2013-02-04 00:45:00,27.8,18.9,30.03,NW,313,0.0,2.0,69,0.00,CLR,,0.00,WeatherDisplay:10.37,2013-02-04 05:45:00,
2013-02-04 01:00:00,26.9,18.7,30.03,NW,313,0.0,0.0,71,0.00,CLR,,0.00,WeatherDisplay:10.37,2013-02-04 06:00:00,
2013-02-04 01:15:00,26.7,18.6,30.02,NW,313,0.0,3.0,71,0.00,CLR,,0.00,WeatherDisplay:10.37,2013-02-04 06:15:00,
2013-02-04 01:30:00,26.9,18.7,30.02,NW,310,0.0,2.0,71,0.00,CLR,,0.00,WeatherDisplay:10.37,2013-02-04 06:30:00,
2013-02-04 01:45:00,26.9,18.7,30.03,NW,310,0.0,0.0,71,0.00,CLR,,0.00,WeatherDisplay:10.37,2013-02-04 06:45:00,
2013-02-04 02:00:00,26.6,18.5,30.04,NW,310,0.0,0.0,71,0.00,CLR,,0.00,WeatherDisplay:10.37,2013-02-04 07:00:00,
2013-02-04 02:15:00,26.4,18.6,30.04,NW,310,0.0,0.0,72,0.00,CLR,,0.00,WeatherDisplay:10.37,2013-02-04 07:15:00,
2013-02-04 02:30:00,25.8,18.7,30.04,NW,310,0.0,1.0,74,0.00,CLR,,0.00,WeatherDisplay:10.37,2013-02-04 07:30:00,
2013-02-04 02:45:00,25.2,18.1,30.04,NW,310,0.0,0.0,74,0.00,CLR,,0.00,WeatherDisplay:10.37,2013-02-04 07:45:00,
2013-02-04 03:00:00,24.9,18.1,30.04,NW,310,0.0,1.0,75,0.00,CLR,,0.00,WeatherDisplay:10.37,2013-02-04 08:00:00,
2013-02-04 03:15:00,24.8,18.0,30.05,NW,310,0.0,0.0,75,0.00,CLR,,0.00,WeatherDisplay:10.37,2013-02-04 08:15:00,
2013-02-04 03:30:00,24.6,18.1,30.06,NW,310,0.0,1.0,76,0.00,CLR,,0.00,WeatherDisplay:10.37,2013-02-04 08:30:00,
2013-02-04 03:45:00,24.3,17.8,30.04,NW,310,0.0,1.0,76,0.00,CLR,,0.00,WeatherDisplay:10.37,2013-02-04 08:45:00,
2013-02-04 04:00:00,24.1,17.9,30.05,NW,310,0.0,1.0,77,0.00,CLR,,0.00,WeatherDisplay:10.37,2013-02-04 09:00:00,
2013-02-04 04:15:00,23.7,17.8,30.05,NW,310,0.0,0.0,78,0.00,CLR,,0.00,WeatherDisplay:10.37,2013-02-04 09:15:00,
2013-02-04 04:30:00,23.4,17.6,30.05,NW,310,0.0,0.0,78,0.00,CLR,,0.00,WeatherDisplay:10.37,2013-02-04 09:30:00,
2013-02-04 04:45:00,23.3,17.5,30.05,NW,310,0.0,0.0,78,0.00,CLR,,0.00,WeatherDisplay:10.37,2013-02-04 09:45:00,
2013-02-04 05:00:00,23.0,17.2,30.06,NW,310,0.0,1.0,78,0.00,CLR,,0.00,WeatherDisplay:10.37,2013-02-04 10:00:00,
2013-02-04 05:15:00,22.8,17.2,30.07,NW,310,0.0,0.0,79,0.00,CLR,,0.00,WeatherDisplay:10.37,2013-02-04 10:15:00,
2013-02-04 05:30:00,22.8,17.6,30.08,NW,310,0.0,0.0,80,0.00,CLR,,0.00,WeatherDisplay:10.37,2013-02-04 10:30:00,
2013-02-04 05:45:00,22.8,17.6,30.08,NW,310,0.0,0.0,80,0.00,CLR,,0.00,WeatherDisplay:10.37,2013-02-04 10:45:00,
2013-02-04 06:00:00,23.1,18.2,30.09,NW,310,0.0,0.0,81,0.00,CLR,,0.00,WeatherDisplay:10.37,2013-02-04 11:00:00,
2013-02-04 06:15:00,23.4,18.1,30.09,NW,310,0.0,0.0,80,0.00,CLR,,0.00,WeatherDisplay:10.37,2013-02-04 11:15:00,
2013-02-04 06:30:00,23.5,18.5,30.08,NW,310,0.0,0.0,81,0.00,CLR,,0.00,WeatherDisplay:10.37,2013-02-04 11:30:00,
2013-02-04 06:45:00,23.6,18.6,30.09,NW,310,0.0,0.0,81,0.00,CLR,,0.00,WeatherDisplay:10.37,2013-02-04 11:45:00,
2013-02-04 07:00:00,23.8,18.8,30.09,NW,310,0.0,0.0,81,0.00,CLR,,0.00,WeatherDisplay:10.37,2013-02-04 12:00:00,
2013-02-04 07:15:00,23.8,18.8,30.11,NW,310,0.0,0.0,81,0.00,CLR,,0.00,WeatherDisplay:10.37,2013-02-04 12:15:00,
2013-02-04 07:30:00,23.8,18.8,30.12,NW,310,0.0,0.0,81,0.00,CLR,,0.00,WeatherDisplay:10.37,2013-02-04 12:30:00,
2013-02-04 07:45:00,23.9,19.2,30.12,NW,311,0.0,0.0,82,0.00,CLR,,0.00,WeatherDisplay:10.37,2013-02-04 12:45:00,
2013-02-04 08:00:00,24.3,19.6,30.13,NW,311,0.0,0.0,82,0.00,CLR,,0.00,WeatherDisplay:10.37,2013-02-04 13:00:00,
2013-02-04 08:15:00,24.8,20.1,30.12,NW,311,0.0,0.0,82,0.00,CLR,,0.00,WeatherDisplay:10.37,2013-02-04 13:15:00,
2013-02-04 08:30:00,25.6,20.9,30.13,NW,311,0.0,1.0,82,0.00,CLR,,0.00,WeatherDisplay:10.37,2013-02-04 13:30:00,
2013-02-04 08:45:00,26.5,21.2,30.13,NW,311,0.0,2.0,80,0.00,CLR,,0.00,WeatherDisplay:10.37,2013-02-04 13:45:00,
2013-02-04 09:00:00,27.4,22.3,30.14,NW,311,0.0,1.0,81,0.00,CLR,,0.00,WeatherDisplay:10.37,2013-02-04 14:00:00,
2013-02-04 09:15:00,28.3,22.3,30.14,NW,311,0.0,0.0,78,0.00,CLR,,0.00,WeatherDisplay:10.37,2013-02-04 14:15:00,
2013-02-04 09:30:00,29.3,23.0,30.16,NW,311,0.0,1.0,77,0.00,CLR,,0.00,WeatherDisplay:10.37,2013-02-04 14:30:00,
2013-02-04 09:45:00,30.4,23.1,30.15,NW,311,0.0,1.0,74,0.00,CLR,,0.00,WeatherDisplay:10.37,2013-02-04 14:45:00,
2013-02-04 10:00:00,31.2,23.6,30.15,NW,311,0.0,1.0,73,0.00,CLR,,0.00,WeatherDisplay:10.37,2013-02-04 15:00:00,
2013-02-04 10:15:00,32.3,24.3,30.15,NW,311,0.0,1.0,72,0.00,CLR,,0.00,WeatherDisplay:10.37,2013-02-04 15:15:00,
2013-02-04 10:30:00,33.6,23.9,30.15,NW,311,0.0,1.0,67,0.00,CLR,,0.00,WeatherDisplay:10.37,2013-02-04 15:30:00,
2013-02-04 10:45:00,35.2,23.4,30.15,NW,311,0.0,1.0,62,0.00,CLR,,0.00,WeatherDisplay:10.37,2013-02-04 15:45:00,
2013-02-04 11:00:00,36.5,23.5,30.16,NW,311,0.0,4.0,59,0.00,CLR,,0.00,WeatherDisplay:10.37,2013-02-04 16:00:00,
2013-02-04 11:15:00,37.5,22.3,30.15,NW,311,0.0,3.0,54,0.00,CLR,,0.00,WeatherDisplay:10.37,2013-02-04 16:15:00,
2013-02-04 11:30:00,38.0,22.4,30.15,NW,311,0.0,3.0,53,0.00,CLR,,0.00,WeatherDisplay:10.37,2013-02-04 16:30:00,
2013-02-04 11:45:00,38.9,22.8,30.14,NW,306,0.0,3.0,52,0.00,CLR,,0.00,WeatherDisplay:10.37,2013-02-04 16:45:00,
2013-02-04 12:00:00,39.8,22.2,30.13,East,83,0.0,5.0,49,0.00,CLR,,0.00,WeatherDisplay:10.37,2013-02-04 17:00:00,
2013-02-04 12:15:00,40.1,22.4,30.11,SSW,205,0.0,4.0,49,0.00,CLR,,0.00,WeatherDisplay:10.37,2013-02-04 17:15:00,
2013-02-04 12:30:00,40.7,22.0,30.09,ESE,118,1.0,4.0,47,0.00,CLR,,0.00,WeatherDisplay:10.37,2013-02-04 17:30:00,
2013-02-04 12:45:00,41.1,22.9,30.09,ENE,71,0.0,4.0,48,0.00,CLR,,0.00,WeatherDisplay:10.37,2013-02-04 17:45:00,
2013-02-04 13:00:00,42.0,23.7,30.10,WSW,243,5.0,8.0,48,0.00,CLR,,0.00,WeatherDisplay:10.37,2013-02-04 18:00:00,
2013-02-04 13:15:00,42.9,23.5,30.09,WSW,242,1.0,7.0,46,0.00,CLR,,0.00,WeatherDisplay:10.37,2013-02-04 18:15:00,
2013-02-04 13:30:00,44.1,23.6,30.08,South,181,1.0,9.0,44,0.00,FEW,,0.00,WeatherDisplay:10.37,2013-02-04 18:30:00,
2013-02-04 13:45:00,45.2,24.6,30.08,WSW,249,2.0,8.0,44,0.00,FEW,,0.00,WeatherDisplay:10.37,2013-02-04 18:45:00,
2013-02-04 14:00:00,45.9,25.2,30.07,SSW,199,5.0,9.0,44,0.00,FEW,,0.00,WeatherDisplay:10.37,2013-02-04 19:00:00,
2013-02-04 14:15:00,46.4,25.1,30.06,SSW,209,0.0,6.0,43,0.00,FEW,,0.00,WeatherDisplay:10.37,2013-02-04 19:15:00,
2013-02-04 14:30:00,46.3,24.4,30.06,SSE,166,3.0,8.0,42,0.00,CLR,,0.00,WeatherDisplay:10.37,2013-02-04 19:30:00,
2013-02-04 14:45:00,46.2,23.8,30.06,South,189,2.0,10.0,41,0.00,CLR,,0.00,WeatherDisplay:10.37,2013-02-04 19:45:00,
2013-02-04 15:00:00,46.2,23.8,30.05,SW,224,2.0,7.0,41,0.00,CLR,,0.00,WeatherDisplay:10.37,2013-02-04 20:00:00,
2013-02-04 15:15:00,46.0,24.2,30.05,South,176,2.0,8.0,42,0.00,CLR,,0.00,WeatherDisplay:10.37,2013-02-04 20:15:00,
2013-02-04 15:30:00,46.1,24.8,30.05,SW,231,1.0,6.0,43,0.00,CLR,,0.00,WeatherDisplay:10.37,2013-02-04 20:30:00,
2013-02-04 15:45:00,46.1,24.3,30.04,SW,236,1.0,5.0,42,0.00,CLR,,0.00,WeatherDisplay:10.37,2013-02-04 20:45:00,
2013-02-04 16:00:00,46.2,25.5,30.03,SW,233,2.0,5.0,44,0.00,CLR,,0.00,WeatherDisplay:10.37,2013-02-04 21:00:00,
2013-02-04 16:15:00,46.3,25.6,30.03,WSW,251,1.0,6.0,44,0.00,CLR,,0.00,WeatherDisplay:10.37,2013-02-04 21:15:00,
2013-02-04 16:30:00,46.4,25.1,30.03,SSW,197,2.0,6.0,43,0.00,CLR,,0.00,WeatherDisplay:10.37,2013-02-04 21:30:00,
2013-02-04 16:45:00,46.3,25.0,30.03,SSW,192,2.0,9.0,43,0.00,CLR,,0.00,WeatherDisplay:10.37,2013-02-04 21:45:00,
2013-02-04 17:00:00,45.9,24.6,30.03,SSE,168,2.0,9.0,43,0.00,CLR,,0.00,WeatherDisplay:10.37,2013-02-04 22:00:00,
2013-02-04 17:15:00,45.5,24.3,30.02,South,181,1.0,9.0,43,0.00,CLR,,0.00,WeatherDisplay:10.37,2013-02-04 22:15:00,
2013-02-04 17:30:00,45.1,24.5,30.02,South,176,1.0,5.0,44,0.00,CLR,,0.00,WeatherDisplay:10.37,2013-02-04 22:30:00,
2013-02-04 17:45:00,44.6,24.5,30.02,SSE,165,0.0,4.0,45,0.00,CLR,,0.00,WeatherDisplay:10.37,2013-02-04 22:45:00,
2013-02-04 18:00:00,44.0,24.0,30.02,SSE,165,0.0,3.0,45,0.00,CLR,,0.00,WeatherDisplay:10.37,2013-02-04 23:00:00,
2013-02-04 18:15:00,43.3,24.4,30.02,SSE,167,2.0,5.0,47,0.00,CLR,,0.00,WeatherDisplay:10.37,2013-02-04 23:15:00,
2013-02-04 18:30:00,42.9,24.5,30.02,SSE,158,1.0,6.0,48,0.00,CLR,,0.00,WeatherDisplay:10.37,2013-02-04 23:30:00,
2013-02-04 18:45:00,42.7,24.8,30.02,SSE,152,1.0,6.0,49,0.00,CLR,,0.00,WeatherDisplay:10.37,2013-02-04 23:45:00,
2013-02-04 19:00:00,42.3,25.0,30.02,SE,129,1.0,6.0,50,0.00,CLR,,0.00,WeatherDisplay:10.37,2013-02-05 00:00:00,
2013-02-04 19:15:00,42.0,24.7,30.03,SSE,159,1.0,6.0,50,0.00,CLR,,0.00,WeatherDisplay:10.37,2013-02-05 00:15:00,
2013-02-04 19:30:00,41.6,24.8,30.03,SSE,162,0.0,5.0,51,0.00,CLR,,0.00,WeatherDisplay:10.37,2013-02-05 00:30:00,
2013-02-04 19:45:00,41.1,24.8,30.02,South,174,1.0,8.0,52,0.00,CLR,,0.00,WeatherDisplay:10.37,2013-02-05 00:45:00,
2013-02-04 20:00:00,40.7,24.9,30.02,SSE,156,2.0,7.0,53,0.00,CLR,,0.00,WeatherDisplay:10.37,2013-02-05 01:00:00,
2013-02-04 20:15:00,40.4,25.1,30.02,SSE,155,2.0,7.0,54,0.00,CLR,,0.00,WeatherDisplay:10.37,2013-02-05 01:15:00,
2013-02-04 20:30:00,40.2,25.3,30.02,SSE,162,0.0,5.0,55,0.00,CLR,,0.00,WeatherDisplay:10.37,2013-02-05 01:30:00,
2013-02-04 20:45:00,39.9,25.0,30.02,SE,141,0.0,4.0,55,0.00,CLR,,0.00,WeatherDisplay:10.37,2013-02-05 01:45:00,
2013-02-04 21:00:00,39.6,24.7,30.02,SSE,148,2.0,6.0,55,0.00,CLR,,0.00,WeatherDisplay:10.37,2013-02-05 02:00:00,
2013-02-04 21:15:00,39.2,24.8,30.03,SSE,155,1.0,4.0,56,0.00,CLR,,0.00,WeatherDisplay:10.37,2013-02-05 02:15:00,
2013-02-04 21:30:00,38.8,24.8,30.03,SSE,160,1.0,4.0,57,0.00,CLR,,0.00,WeatherDisplay:10.37,2013-02-05 02:30:00,
2013-02-04 21:45:00,38.2,24.3,30.03,SSE,160,1.0,3.0,57,0.00,CLR,,0.00,WeatherDisplay:10.37,2013-02-05 02:45:00,
2013-02-04 22:00:00,37.7,24.2,30.03,SSE,160,0.0,2.0,58,0.00,CLR,,0.00,WeatherDisplay:10.37,2013-02-05 03:00:00,
2013-02-04 22:15:00,37.2,24.2,30.03,SSE,160,0.0,2.0,59,0.00,CLR,,0.00,WeatherDisplay:10.37,2013-02-05 03:15:00,
2013-02-04 22:30:00,36.6,24.0,30.03,SSE,161,0.0,3.0,60,0.00,CLR,,0.00,WeatherDisplay:10.37,2013-02-05 03:30:00,
2013-02-04 22:45:00,36.3,23.7,30.02,SSE,161,0.0,2.0,60,0.00,CLR,,0.00,WeatherDisplay:10.37,2013-02-05 03:45:00,
2013-02-04 23:00:00,35.9,23.7,30.02,SSE,165,1.0,4.0,61,0.00,CLR,,0.00,WeatherDisplay:10.37,2013-02-05 04:00:00,
2013-02-04 23:15:00,36.1,23.9,30.02,South,170,0.0,2.0,61,0.00,CLR,,0.00,WeatherDisplay:10.37,2013-02-05 04:15:00,
2013-02-04 23:30:00,36.3,24.1,30.02,South,170,0.0,3.0,61,0.00,FEW,,0.00,WeatherDisplay:10.37,2013-02-05 04:30:00,
2013-02-04 23:45:00,36.4,24.2,30.01,South,170,0.0,3.0,61,0.00,FEW,,0.00,WeatherDisplay:10.37,2013-02-05 04:45:00,